sensor_id;sensor_type;location;lat;lon;timestamp;temperature;humidity
6375;DHT22;35400;45.472;-122.822;2022-08-19T00:01:40;30.50;94.10
6375;DHT22;35400;45.472;-122.822;2022-08-19T00:04:09;30.40;94.20
6375;DHT22;35400;45.472;-122.822;2022-08-19T00:06:37;30.30;94.60
6375;DHT22;35400;45.472;-122.822;2022-08-19T00:09:05;30.30;94.90
6375;DHT22;35400;45.472;-122.822;2022-08-19T00:11:32;30.20;95.60
6375;DHT22;35400;45.472;-122.822;2022-08-19T00:14:00;30.20;95.60
6375;DHT22;35400;45.472;-122.822;2022-08-19T00:16:26;30.20;95.40
6375;DHT22;35400;45.472;-122.822;2022-08-19T00:18:54;30.20;95.40
6375;DHT22;35400;45.472;-122.822;2022-08-19T00:21:25;30.20;95.50
6375;DHT22;35400;45.472;-122.822;2022-08-19T00:23:55;30.20;95.80
6375;DHT22;35400;45.472;-122.822;2022-08-19T00:26:27;30.10;95.80
6375;DHT22;35400;45.472;-122.822;2022-08-19T00:28:54;30.20;95.60
6375;DHT22;35400;45.472;-122.822;2022-08-19T00:31:21;30.10;95.70
6375;DHT22;35400;45.472;-122.822;2022-08-19T00:33:48;30.10;95.70
6375;DHT22;35400;45.472;-122.822;2022-08-19T00:36:17;30.00;95.20
6375;DHT22;35400;45.472;-122.822;2022-08-19T00:38:44;30.00;95.60
6375;DHT22;35400;45.472;-122.822;2022-08-19T00:41:14;30.00;95.70
6375;DHT22;35400;45.472;-122.822;2022-08-19T00:43:41;29.90;95.50
6375;DHT22;35400;45.472;-122.822;2022-08-19T00:46:07;29.90;95.40
6375;DHT22;35400;45.472;-122.822;2022-08-19T00:48:34;29.80;95.40
6375;DHT22;35400;45.472;-122.822;2022-08-19T00:51:02;29.70;95.40
6375;DHT22;35400;45.472;-122.822;2022-08-19T00:53:31;29.70;95.40
6375;DHT22;35400;45.472;-122.822;2022-08-19T00:56:01;29.60;95.40
6375;DHT22;35400;45.472;-122.822;2022-08-19T00:58:31;29.60;95.30
6375;DHT22;35400;45.472;-122.822;2022-08-19T01:00:58;29.50;95.40
6375;DHT22;35400;45.472;-122.822;2022-08-19T01:03:25;29.50;95.20
6375;DHT22;35400;45.472;-122.822;2022-08-19T01:05:54;29.40;94.90
6375;DHT22;35400;45.472;-122.822;2022-08-19T01:08:22;29.30;95.10
6375;DHT22;35400;45.472;-122.822;2022-08-19T01:10:54;29.20;95.30
6375;DHT22;35400;45.472;-122.822;2022-08-19T01:13:23;29.10;94.50
6375;DHT22;35400;45.472;-122.822;2022-08-19T01:16:04;29.00;93.80
6375;DHT22;35400;45.472;-122.822;2022-08-19T01:18:32;29.00;94.20
6375;DHT22;35400;45.472;-122.822;2022-08-19T01:21:08;28.90;94.70
6375;DHT22;35400;45.472;-122.822;2022-08-19T01:23:35;28.80;96.20
6375;DHT22;35400;45.472;-122.822;2022-08-19T01:26:14;28.60;96.20
6375;DHT22;35400;45.472;-122.822;2022-08-19T01:28:41;28.60;96.10
6375;DHT22;35400;45.472;-122.822;2022-08-19T01:31:15;28.50;96.00
6375;DHT22;35400;45.472;-122.822;2022-08-19T01:33:42;28.50;96.00
6375;DHT22;35400;45.472;-122.822;2022-08-19T01:36:13;28.30;96.50
6375;DHT22;35400;45.472;-122.822;2022-08-19T01:38:42;28.30;96.50
6375;DHT22;35400;45.472;-122.822;2022-08-19T01:41:10;28.30;96.50
6375;DHT22;35400;45.472;-122.822;2022-08-19T01:43:37;28.20;96.50
6375;DHT22;35400;45.472;-122.822;2022-08-19T01:46:04;28.20;96.70
6375;DHT22;35400;45.472;-122.822;2022-08-19T01:48:37;28.10;97.00
6375;DHT22;35400;45.472;-122.822;2022-08-19T01:51:04;28.10;96.90
6375;DHT22;35400;45.472;-122.822;2022-08-19T01:53:31;28.10;97.00
6375;DHT22;35400;45.472;-122.822;2022-08-19T01:55:58;28.10;97.00
6375;DHT22;35400;45.472;-122.822;2022-08-19T01:58:27;28.10;97.00
6375;DHT22;35400;45.472;-122.822;2022-08-19T02:00:57;28.00;97.30
6375;DHT22;35400;45.472;-122.822;2022-08-19T02:03:23;28.00;97.40
6375;DHT22;35400;45.472;-122.822;2022-08-19T02:05:55;28.00;97.50
6375;DHT22;35400;45.472;-122.822;2022-08-19T02:08:22;28.00;97.50
6375;DHT22;35400;45.472;-122.822;2022-08-19T02:10:48;28.00;98.00
6375;DHT22;35400;45.472;-122.822;2022-08-19T02:13:16;27.90;97.90
6375;DHT22;35400;45.472;-122.822;2022-08-19T02:15:43;27.90;97.90
6375;DHT22;35400;45.472;-122.822;2022-08-19T02:18:10;27.90;97.90
6375;DHT22;35400;45.472;-122.822;2022-08-19T02:20:37;27.90;98.00
6375;DHT22;35400;45.472;-122.822;2022-08-19T02:23:05;27.90;98.10
6375;DHT22;35400;45.472;-122.822;2022-08-19T02:25:32;27.90;98.20
6375;DHT22;35400;45.472;-122.822;2022-08-19T02:27:58;27.80;98.40
6375;DHT22;35400;45.472;-122.822;2022-08-19T02:30:25;27.80;98.50
6375;DHT22;35400;45.472;-122.822;2022-08-19T02:32:52;27.80;98.70
6375;DHT22;35400;45.472;-122.822;2022-08-19T02:35:19;27.70;98.70
6375;DHT22;35400;45.472;-122.822;2022-08-19T02:37:46;27.70;98.70
6375;DHT22;35400;45.472;-122.822;2022-08-19T02:40:31;27.70;98.60
6375;DHT22;35400;45.472;-122.822;2022-08-19T02:43:03;27.60;98.90
6375;DHT22;35400;45.472;-122.822;2022-08-19T02:45:36;27.60;99.00
6375;DHT22;35400;45.472;-122.822;2022-08-19T02:48:03;27.60;99.10
6375;DHT22;35400;45.472;-122.822;2022-08-19T02:50:31;27.60;99.10
6375;DHT22;35400;45.472;-122.822;2022-08-19T02:52:58;27.60;99.10
6375;DHT22;35400;45.472;-122.822;2022-08-19T02:55:24;27.50;99.00
6375;DHT22;35400;45.472;-122.822;2022-08-19T02:57:51;27.50;99.20
6375;DHT22;35400;45.472;-122.822;2022-08-19T03:00:18;27.50;99.20
6375;DHT22;35400;45.472;-122.822;2022-08-19T03:02:44;27.50;99.20
6375;DHT22;35400;45.472;-122.822;2022-08-19T03:05:12;27.40;99.20
6375;DHT22;35400;45.472;-122.822;2022-08-19T03:07:39;27.40;99.50
6375;DHT22;35400;45.472;-122.822;2022-08-19T03:10:06;27.30;99.50
6375;DHT22;35400;45.472;-122.822;2022-08-19T03:12:36;27.30;99.70
6375;DHT22;35400;45.472;-122.822;2022-08-19T03:15:05;27.30;99.80
6375;DHT22;35400;45.472;-122.822;2022-08-19T03:17:34;27.20;99.80
6375;DHT22;35400;45.472;-122.822;2022-08-19T03:20:00;27.20;99.90
6375;DHT22;35400;45.472;-122.822;2022-08-19T03:22:27;27.10;99.90
6375;DHT22;35400;45.472;-122.822;2022-08-19T03:24:56;27.10;99.90
6375;DHT22;35400;45.472;-122.822;2022-08-19T03:27:22;27.10;99.90
6375;DHT22;35400;45.472;-122.822;2022-08-19T03:29:48;27.00;99.90
6375;DHT22;35400;45.472;-122.822;2022-08-19T03:32:15;27.00;99.90
6375;DHT22;35400;45.472;-122.822;2022-08-19T03:34:41;26.90;99.90
6375;DHT22;35400;45.472;-122.822;2022-08-19T03:37:11;26.90;99.90
6375;DHT22;35400;45.472;-122.822;2022-08-19T03:39:41;26.90;99.90
6375;DHT22;35400;45.472;-122.822;2022-08-19T03:42:08;26.90;99.90
6375;DHT22;35400;45.472;-122.822;2022-08-19T03:44:35;26.80;99.90
6375;DHT22;35400;45.472;-122.822;2022-08-19T03:47:04;26.80;99.90
6375;DHT22;35400;45.472;-122.822;2022-08-19T03:49:32;26.70;99.90
6375;DHT22;35400;45.472;-122.822;2022-08-19T03:52:01;26.70;99.90
6375;DHT22;35400;45.472;-122.822;2022-08-19T03:54:28;26.70;99.90
6375;DHT22;35400;45.472;-122.822;2022-08-19T03:56:56;26.70;99.90
6375;DHT22;35400;45.472;-122.822;2022-08-19T03:59:32;26.60;99.90
6375;DHT22;35400;45.472;-122.822;2022-08-19T04:02:04;26.60;99.90
6375;DHT22;35400;45.472;-122.822;2022-08-19T04:04:35;26.60;99.90
6375;DHT22;35400;45.472;-122.822;2022-08-19T04:07:02;26.60;99.90
6375;DHT22;35400;45.472;-122.822;2022-08-19T04:09:28;26.50;99.90
6375;DHT22;35400;45.472;-122.822;2022-08-19T04:11:56;26.50;99.90
6375;DHT22;35400;45.472;-122.822;2022-08-19T04:14:26;26.50;99.90
6375;DHT22;35400;45.472;-122.822;2022-08-19T04:16:54;26.40;99.90
6375;DHT22;35400;45.472;-122.822;2022-08-19T04:19:20;26.40;99.90
6375;DHT22;35400;45.472;-122.822;2022-08-19T04:21:50;26.30;99.90
6375;DHT22;35400;45.472;-122.822;2022-08-19T04:24:18;26.30;99.90
6375;DHT22;35400;45.472;-122.822;2022-08-19T04:26:45;26.30;99.90
6375;DHT22;35400;45.472;-122.822;2022-08-19T04:29:14;26.30;99.90
6375;DHT22;35400;45.472;-122.822;2022-08-19T04:31:42;26.20;99.90
6375;DHT22;35400;45.472;-122.822;2022-08-19T04:34:11;26.20;99.90
6375;DHT22;35400;45.472;-122.822;2022-08-19T04:36:40;26.20;99.90
6375;DHT22;35400;45.472;-122.822;2022-08-19T04:39:09;26.10;99.90
6375;DHT22;35400;45.472;-122.822;2022-08-19T04:41:37;26.10;99.90
6375;DHT22;35400;45.472;-122.822;2022-08-19T04:44:22;26.10;99.90
6375;DHT22;35400;45.472;-122.822;2022-08-19T04:46:50;26.10;99.90
6375;DHT22;35400;45.472;-122.822;2022-08-19T04:49:18;26.00;99.90
6375;DHT22;35400;45.472;-122.822;2022-08-19T04:51:46;26.00;99.90
6375;DHT22;35400;45.472;-122.822;2022-08-19T04:54:17;26.00;99.90
6375;DHT22;35400;45.472;-122.822;2022-08-19T04:56:49;26.00;99.90
6375;DHT22;35400;45.472;-122.822;2022-08-19T04:59:17;25.90;99.90
6375;DHT22;35400;45.472;-122.822;2022-08-19T05:01:44;25.90;99.90
6375;DHT22;35400;45.472;-122.822;2022-08-19T05:04:19;25.90;99.90
6375;DHT22;35400;45.472;-122.822;2022-08-19T05:06:49;25.90;99.90
6375;DHT22;35400;45.472;-122.822;2022-08-19T05:09:18;25.80;99.90
6375;DHT22;35400;45.472;-122.822;2022-08-19T05:11:45;25.80;99.90
6375;DHT22;35400;45.472;-122.822;2022-08-19T05:14:12;25.80;99.90
6375;DHT22;35400;45.472;-122.822;2022-08-19T05:16:39;25.80;99.90
6375;DHT22;35400;45.472;-122.822;2022-08-19T05:19:06;25.80;99.90
6375;DHT22;35400;45.472;-122.822;2022-08-19T05:21:51;25.80;99.90
6375;DHT22;35400;45.472;-122.822;2022-08-19T05:24:36;25.70;99.90
6375;DHT22;35400;45.472;-122.822;2022-08-19T05:27:03;25.70;99.90
6375;DHT22;35400;45.472;-122.822;2022-08-19T05:29:32;25.70;99.90
6375;DHT22;35400;45.472;-122.822;2022-08-19T05:32:03;25.70;99.90
6375;DHT22;35400;45.472;-122.822;2022-08-19T05:34:31;25.60;99.90
6375;DHT22;35400;45.472;-122.822;2022-08-19T05:37:00;25.60;99.90
6375;DHT22;35400;45.472;-122.822;2022-08-19T05:39:29;25.60;99.90
6375;DHT22;35400;45.472;-122.822;2022-08-19T05:41:58;25.60;99.90
6375;DHT22;35400;45.472;-122.822;2022-08-19T05:44:27;25.50;99.90
6375;DHT22;35400;45.472;-122.822;2022-08-19T05:46:58;25.50;99.90
6375;DHT22;35400;45.472;-122.822;2022-08-19T05:49:26;25.50;99.90
6375;DHT22;35400;45.472;-122.822;2022-08-19T05:51:53;25.40;99.90
6375;DHT22;35400;45.472;-122.822;2022-08-19T05:54:22;25.40;99.90
6375;DHT22;35400;45.472;-122.822;2022-08-19T05:56:52;25.40;99.90
6375;DHT22;35400;45.472;-122.822;2022-08-19T05:59:20;25.40;99.90
6375;DHT22;35400;45.472;-122.822;2022-08-19T06:01:48;25.30;99.90
6375;DHT22;35400;45.472;-122.822;2022-08-19T06:04:20;25.30;99.90
6375;DHT22;35400;45.472;-122.822;2022-08-19T06:06:49;25.30;99.90
6375;DHT22;35400;45.472;-122.822;2022-08-19T06:09:17;25.20;99.90
6375;DHT22;35400;45.472;-122.822;2022-08-19T06:11:50;25.20;99.90
6375;DHT22;35400;45.472;-122.822;2022-08-19T06:14:22;25.20;99.90
6375;DHT22;35400;45.472;-122.822;2022-08-19T06:16:49;25.20;99.90
6375;DHT22;35400;45.472;-122.822;2022-08-19T06:19:21;25.20;99.90
6375;DHT22;35400;45.472;-122.822;2022-08-19T06:21:49;25.10;99.90
6375;DHT22;35400;45.472;-122.822;2022-08-19T06:24:21;25.10;99.90
6375;DHT22;35400;45.472;-122.822;2022-08-19T06:26:51;25.10;99.90
6375;DHT22;35400;45.472;-122.822;2022-08-19T06:29:21;25.00;99.90
6375;DHT22;35400;45.472;-122.822;2022-08-19T06:31:49;25.00;99.90
6375;DHT22;35400;45.472;-122.822;2022-08-19T06:34:16;25.00;99.90
6375;DHT22;35400;45.472;-122.822;2022-08-19T06:36:48;25.00;99.90
6375;DHT22;35400;45.472;-122.822;2022-08-19T06:39:19;25.00;99.90
6375;DHT22;35400;45.472;-122.822;2022-08-19T06:41:47;24.90;99.90
6375;DHT22;35400;45.472;-122.822;2022-08-19T06:44:14;24.90;99.90
6375;DHT22;35400;45.472;-122.822;2022-08-19T06:46:41;24.90;99.90
6375;DHT22;35400;45.472;-122.822;2022-08-19T06:49:08;24.80;99.90
6375;DHT22;35400;45.472;-122.822;2022-08-19T06:51:43;24.80;99.90
6375;DHT22;35400;45.472;-122.822;2022-08-19T06:54:10;24.90;99.90
6375;DHT22;35400;45.472;-122.822;2022-08-19T06:56:37;24.80;99.90
6375;DHT22;35400;45.472;-122.822;2022-08-19T06:59:09;24.80;99.90
6375;DHT22;35400;45.472;-122.822;2022-08-19T07:01:42;24.80;99.90
6375;DHT22;35400;45.472;-122.822;2022-08-19T07:04:14;24.80;99.90
6375;DHT22;35400;45.472;-122.822;2022-08-19T07:06:41;24.80;99.90
6375;DHT22;35400;45.472;-122.822;2022-08-19T07:09:10;24.80;99.90
6375;DHT22;35400;45.472;-122.822;2022-08-19T07:11:37;24.80;99.90
6375;DHT22;35400;45.472;-122.822;2022-08-19T07:14:03;24.80;99.90
6375;DHT22;35400;45.472;-122.822;2022-08-19T07:16:31;24.80;99.90
6375;DHT22;35400;45.472;-122.822;2022-08-19T07:18:58;24.80;99.90
6375;DHT22;35400;45.472;-122.822;2022-08-19T07:21:27;24.80;99.90
6375;DHT22;35400;45.472;-122.822;2022-08-19T07:23:56;24.70;99.90
6375;DHT22;35400;45.472;-122.822;2022-08-19T07:26:30;24.70;99.90
6375;DHT22;35400;45.472;-122.822;2022-08-19T07:28:58;24.70;99.90
6375;DHT22;35400;45.472;-122.822;2022-08-19T07:31:27;24.60;99.90
6375;DHT22;35400;45.472;-122.822;2022-08-19T07:33:55;24.70;99.90
6375;DHT22;35400;45.472;-122.822;2022-08-19T07:36:25;24.60;99.90
6375;DHT22;35400;45.472;-122.822;2022-08-19T07:38:57;24.60;99.90
6375;DHT22;35400;45.472;-122.822;2022-08-19T07:41:25;24.60;99.90
6375;DHT22;35400;45.472;-122.822;2022-08-19T07:43:52;24.60;99.90
6375;DHT22;35400;45.472;-122.822;2022-08-19T07:46:19;24.60;99.90
6375;DHT22;35400;45.472;-122.822;2022-08-19T07:48:48;24.60;99.90
6375;DHT22;35400;45.472;-122.822;2022-08-19T07:51:19;24.60;99.90
6375;DHT22;35400;45.472;-122.822;2022-08-19T07:53:47;24.60;99.90
6375;DHT22;35400;45.472;-122.822;2022-08-19T07:56:14;24.60;99.90
6375;DHT22;35400;45.472;-122.822;2022-08-19T07:58:42;24.60;99.90
6375;DHT22;35400;45.472;-122.822;2022-08-19T08:01:14;24.60;99.90
6375;DHT22;35400;45.472;-122.822;2022-08-19T08:03:41;24.50;99.90
6375;DHT22;35400;45.472;-122.822;2022-08-19T08:06:26;24.50;99.90
6375;DHT22;35400;45.472;-122.822;2022-08-19T08:09:12;24.50;99.90
6375;DHT22;35400;45.472;-122.822;2022-08-19T08:14:25;24.50;99.90
6375;DHT22;35400;45.472;-122.822;2022-08-19T08:16:52;24.50;99.90
6375;DHT22;35400;45.472;-122.822;2022-08-19T08:19:21;24.40;99.90
6375;DHT22;35400;45.472;-122.822;2022-08-19T08:21:48;24.40;99.90
6375;DHT22;35400;45.472;-122.822;2022-08-19T08:24:16;24.40;99.90
6375;DHT22;35400;45.472;-122.822;2022-08-19T08:26:43;24.40;99.90
6375;DHT22;35400;45.472;-122.822;2022-08-19T08:29:13;24.30;99.90
6375;DHT22;35400;45.472;-122.822;2022-08-19T08:31:42;24.30;99.90
6375;DHT22;35400;45.472;-122.822;2022-08-19T08:34:11;24.20;99.90
6375;DHT22;35400;45.472;-122.822;2022-08-19T08:36:39;24.20;99.90
6375;DHT22;35400;45.472;-122.822;2022-08-19T08:39:13;24.10;99.90
6375;DHT22;35400;45.472;-122.822;2022-08-19T08:44:54;24.10;99.90
6375;DHT22;35400;45.472;-122.822;2022-08-19T08:47:25;24.00;99.90
6375;DHT22;35400;45.472;-122.822;2022-08-19T08:50:20;24.00;99.90
6375;DHT22;35400;45.472;-122.822;2022-08-19T08:52:47;23.90;99.90
6375;DHT22;35400;45.472;-122.822;2022-08-19T08:55:21;23.80;99.90
6375;DHT22;35400;45.472;-122.822;2022-08-19T09:00:27;23.80;99.90
6375;DHT22;35400;45.472;-122.822;2022-08-19T09:02:56;23.70;99.90
6375;DHT22;35400;45.472;-122.822;2022-08-19T09:05:26;23.60;99.90
6375;DHT22;35400;45.472;-122.822;2022-08-19T09:08:18;23.60;99.90
6375;DHT22;35400;45.472;-122.822;2022-08-19T09:10:54;23.60;99.90
6375;DHT22;35400;45.472;-122.822;2022-08-19T09:16:19;23.50;99.90
6375;DHT22;35400;45.472;-122.822;2022-08-19T09:18:50;23.40;99.90
6375;DHT22;35400;45.472;-122.822;2022-08-19T09:21:21;23.40;99.90
6375;DHT22;35400;45.472;-122.822;2022-08-19T09:23:52;23.30;99.90
6375;DHT22;35400;45.472;-122.822;2022-08-19T09:26:22;23.30;99.90
6375;DHT22;35400;45.472;-122.822;2022-08-19T09:28:50;23.20;99.90
6375;DHT22;35400;45.472;-122.822;2022-08-19T09:31:25;23.20;99.90
6375;DHT22;35400;45.472;-122.822;2022-08-19T09:33:52;23.10;99.90
6375;DHT22;35400;45.472;-122.822;2022-08-19T09:36:24;23.10;99.90
6375;DHT22;35400;45.472;-122.822;2022-08-19T09:38:52;23.00;99.90
6375;DHT22;35400;45.472;-122.822;2022-08-19T09:41:24;22.90;99.90
6375;DHT22;35400;45.472;-122.822;2022-08-19T09:43:53;22.90;99.90
6375;DHT22;35400;45.472;-122.822;2022-08-19T09:46:23;22.80;99.90
6375;DHT22;35400;45.472;-122.822;2022-08-19T09:48:50;22.70;99.90
6375;DHT22;35400;45.472;-122.822;2022-08-19T09:51:21;22.70;99.90
6375;DHT22;35400;45.472;-122.822;2022-08-19T09:53:49;22.60;99.90
6375;DHT22;35400;45.472;-122.822;2022-08-19T09:56:21;22.50;99.90
6375;DHT22;35400;45.472;-122.822;2022-08-19T09:58:47;22.40;99.90
6375;DHT22;35400;45.472;-122.822;2022-08-19T10:01:23;22.40;99.90
6375;DHT22;35400;45.472;-122.822;2022-08-19T10:03:52;22.30;99.90
6375;DHT22;35400;45.472;-122.822;2022-08-19T10:06:23;22.20;99.90
6375;DHT22;35400;45.472;-122.822;2022-08-19T10:08:51;22.20;99.90
6375;DHT22;35400;45.472;-122.822;2022-08-19T10:11:18;22.10;99.90
6375;DHT22;35400;45.472;-122.822;2022-08-19T10:13:46;22.10;99.90
6375;DHT22;35400;45.472;-122.822;2022-08-19T10:16:15;22.00;99.90
6375;DHT22;35400;45.472;-122.822;2022-08-19T10:18:44;22.00;99.90
6375;DHT22;35400;45.472;-122.822;2022-08-19T10:21:12;21.90;99.90
6375;DHT22;35400;45.472;-122.822;2022-08-19T10:23:41;21.90;99.90
6375;DHT22;35400;45.472;-122.822;2022-08-19T10:26:13;21.80;99.90
6375;DHT22;35400;45.472;-122.822;2022-08-19T10:28:40;21.80;99.90
6375;DHT22;35400;45.472;-122.822;2022-08-19T10:31:10;21.70;99.90
6375;DHT22;35400;45.472;-122.822;2022-08-19T10:33:37;21.70;99.90
6375;DHT22;35400;45.472;-122.822;2022-08-19T10:36:07;21.60;99.90
6375;DHT22;35400;45.472;-122.822;2022-08-19T10:38:34;21.60;99.90
6375;DHT22;35400;45.472;-122.822;2022-08-19T10:41:12;21.50;99.90
6375;DHT22;35400;45.472;-122.822;2022-08-19T10:43:39;21.50;99.90
6375;DHT22;35400;45.472;-122.822;2022-08-19T10:46:11;21.50;99.90
6375;DHT22;35400;45.472;-122.822;2022-08-19T10:48:38;21.40;99.90
6375;DHT22;35400;45.472;-122.822;2022-08-19T10:51:05;21.40;99.90
6375;DHT22;35400;45.472;-122.822;2022-08-19T10:53:50;21.30;99.90
6375;DHT22;35400;45.472;-122.822;2022-08-19T10:56:17;21.20;99.90
6375;DHT22;35400;45.472;-122.822;2022-08-19T10:59:03;21.10;99.90
6375;DHT22;35400;45.472;-122.822;2022-08-19T11:01:31;21.10;99.90
6375;DHT22;35400;45.472;-122.822;2022-08-19T11:04:00;21.00;99.90
6375;DHT22;35400;45.472;-122.822;2022-08-19T11:06:27;20.90;99.90
6375;DHT22;35400;45.472;-122.822;2022-08-19T11:08:54;20.90;99.90
6375;DHT22;35400;45.472;-122.822;2022-08-19T11:11:21;20.80;99.90
6375;DHT22;35400;45.472;-122.822;2022-08-19T11:13:48;20.80;99.90
6375;DHT22;35400;45.472;-122.822;2022-08-19T11:16:20;20.70;99.90
6375;DHT22;35400;45.472;-122.822;2022-08-19T11:18:54;20.60;99.90
6375;DHT22;35400;45.472;-122.822;2022-08-19T11:21:29;20.60;99.90
6375;DHT22;35400;45.472;-122.822;2022-08-19T11:23:59;20.60;99.90
6375;DHT22;35400;45.472;-122.822;2022-08-19T11:26:27;20.60;99.90
6375;DHT22;35400;45.472;-122.822;2022-08-19T11:28:53;20.50;99.90
6375;DHT22;35400;45.472;-122.822;2022-08-19T11:31:24;20.50;99.90
6375;DHT22;35400;45.472;-122.822;2022-08-19T11:33:51;20.40;99.90
6375;DHT22;35400;45.472;-122.822;2022-08-19T11:36:20;20.40;99.90
6375;DHT22;35400;45.472;-122.822;2022-08-19T11:38:48;20.40;99.90
6375;DHT22;35400;45.472;-122.822;2022-08-19T11:41:18;20.30;99.90
6375;DHT22;35400;45.472;-122.822;2022-08-19T11:43:45;20.30;99.90
6375;DHT22;35400;45.472;-122.822;2022-08-19T11:46:13;20.20;99.90
6375;DHT22;35400;45.472;-122.822;2022-08-19T11:48:40;20.20;99.90
6375;DHT22;35400;45.472;-122.822;2022-08-19T11:51:10;20.20;99.90
6375;DHT22;35400;45.472;-122.822;2022-08-19T11:53:38;20.10;99.90
6375;DHT22;35400;45.472;-122.822;2022-08-19T11:56:06;20.10;99.90
6375;DHT22;35400;45.472;-122.822;2022-08-19T11:58:32;20.00;99.90
6375;DHT22;35400;45.472;-122.822;2022-08-19T12:01:00;20.00;99.90
6375;DHT22;35400;45.472;-122.822;2022-08-19T12:03:26;19.90;99.90
6375;DHT22;35400;45.472;-122.822;2022-08-19T12:05:53;19.90;99.90
6375;DHT22;35400;45.472;-122.822;2022-08-19T12:08:20;19.80;99.90
6375;DHT22;35400;45.472;-122.822;2022-08-19T12:10:47;19.80;99.90
6375;DHT22;35400;45.472;-122.822;2022-08-19T12:13:14;19.80;99.90
6375;DHT22;35400;45.472;-122.822;2022-08-19T12:15:46;19.80;99.90
6375;DHT22;35400;45.472;-122.822;2022-08-19T12:18:13;19.70;99.90
6375;DHT22;35400;45.472;-122.822;2022-08-19T12:20:43;19.70;99.90
6375;DHT22;35400;45.472;-122.822;2022-08-19T12:23:10;19.70;99.90
6375;DHT22;35400;45.472;-122.822;2022-08-19T12:25:42;19.70;99.90
6375;DHT22;35400;45.472;-122.822;2022-08-19T12:28:14;19.70;99.90
6375;DHT22;35400;45.472;-122.822;2022-08-19T12:30:41;19.60;99.90
6375;DHT22;35400;45.472;-122.822;2022-08-19T12:33:07;19.60;99.90
6375;DHT22;35400;45.472;-122.822;2022-08-19T12:35:34;19.60;99.90
6375;DHT22;35400;45.472;-122.822;2022-08-19T12:38:01;19.60;99.90
6375;DHT22;35400;45.472;-122.822;2022-08-19T12:40:28;19.60;99.90
6375;DHT22;35400;45.472;-122.822;2022-08-19T12:42:55;19.50;99.90
6375;DHT22;35400;45.472;-122.822;2022-08-19T12:45:21;19.50;99.90
6375;DHT22;35400;45.472;-122.822;2022-08-19T12:47:48;19.50;99.90
6375;DHT22;35400;45.472;-122.822;2022-08-19T12:50:15;19.50;99.90
6375;DHT22;35400;45.472;-122.822;2022-08-19T12:52:41;19.50;99.90
6375;DHT22;35400;45.472;-122.822;2022-08-19T12:55:08;19.50;99.90
6375;DHT22;35400;45.472;-122.822;2022-08-19T12:57:35;19.50;99.90
6375;DHT22;35400;45.472;-122.822;2022-08-19T13:00:06;19.40;99.90
6375;DHT22;35400;45.472;-122.822;2022-08-19T13:02:38;19.40;99.90
6375;DHT22;35400;45.472;-122.822;2022-08-19T13:05:05;19.40;99.90
6375;DHT22;35400;45.472;-122.822;2022-08-19T13:07:34;19.40;99.90
6375;DHT22;35400;45.472;-122.822;2022-08-19T13:10:00;19.30;99.90
6375;DHT22;35400;45.472;-122.822;2022-08-19T13:12:27;19.30;99.90
6375;DHT22;35400;45.472;-122.822;2022-08-19T13:14:55;19.30;99.90
6375;DHT22;35400;45.472;-122.822;2022-08-19T13:17:21;19.30;99.90
6375;DHT22;35400;45.472;-122.822;2022-08-19T13:19:49;19.20;99.90
6375;DHT22;35400;45.472;-122.822;2022-08-19T13:22:16;19.20;99.90
6375;DHT22;35400;45.472;-122.822;2022-08-19T13:24:42;19.20;99.90
6375;DHT22;35400;45.472;-122.822;2022-08-19T13:27:09;19.20;99.90
6375;DHT22;35400;45.472;-122.822;2022-08-19T13:29:35;19.20;99.90
6375;DHT22;35400;45.472;-122.822;2022-08-19T13:32:20;19.20;99.90
6375;DHT22;35400;45.472;-122.822;2022-08-19T13:35:05;19.20;99.90
6375;DHT22;35400;45.472;-122.822;2022-08-19T13:37:31;19.20;99.90
6375;DHT22;35400;45.472;-122.822;2022-08-19T13:40:15;19.20;99.90
6375;DHT22;35400;45.472;-122.822;2022-08-19T13:42:45;19.20;99.90
6375;DHT22;35400;45.472;-122.822;2022-08-19T13:45:14;19.10;99.90
6375;DHT22;35400;45.472;-122.822;2022-08-19T13:47:42;19.20;99.90
6375;DHT22;35400;45.472;-122.822;2022-08-19T13:50:17;19.10;99.90
6375;DHT22;35400;45.472;-122.822;2022-08-19T13:52:44;19.20;99.90
6375;DHT22;35400;45.472;-122.822;2022-08-19T13:55:11;19.20;99.90
6375;DHT22;35400;45.472;-122.822;2022-08-19T13:57:38;19.20;99.90
6375;DHT22;35400;45.472;-122.822;2022-08-19T14:00:14;19.10;99.90
6375;DHT22;35400;45.472;-122.822;2022-08-19T14:02:44;19.20;99.90
6375;DHT22;35400;45.472;-122.822;2022-08-19T14:05:14;19.20;99.90
6375;DHT22;35400;45.472;-122.822;2022-08-19T14:07:40;19.20;99.90
6375;DHT22;35400;45.472;-122.822;2022-08-19T14:10:09;19.20;99.90
6375;DHT22;35400;45.472;-122.822;2022-08-19T14:12:37;19.20;99.90
6375;DHT22;35400;45.472;-122.822;2022-08-19T14:15:06;19.20;99.90
6375;DHT22;35400;45.472;-122.822;2022-08-19T14:17:33;19.30;99.90
6375;DHT22;35400;45.472;-122.822;2022-08-19T14:20:06;19.30;99.90
6375;DHT22;35400;45.472;-122.822;2022-08-19T14:22:39;19.30;99.90
6375;DHT22;35400;45.472;-122.822;2022-08-19T14:25:08;19.30;99.90
6375;DHT22;35400;45.472;-122.822;2022-08-19T14:27:36;19.30;99.90
6375;DHT22;35400;45.472;-122.822;2022-08-19T14:30:08;19.30;99.90
6375;DHT22;35400;45.472;-122.822;2022-08-19T14:32:35;19.40;99.90
6375;DHT22;35400;45.472;-122.822;2022-08-19T14:35:02;19.40;99.90
6375;DHT22;35400;45.472;-122.822;2022-08-19T14:37:28;19.40;99.90
6375;DHT22;35400;45.472;-122.822;2022-08-19T14:39:55;19.40;99.90
6375;DHT22;35400;45.472;-122.822;2022-08-19T14:42:21;19.40;99.90
6375;DHT22;35400;45.472;-122.822;2022-08-19T14:44:48;19.40;99.90
6375;DHT22;35400;45.472;-122.822;2022-08-19T14:47:14;19.50;99.90
6375;DHT22;35400;45.472;-122.822;2022-08-19T14:49:41;19.50;99.90
6375;DHT22;35400;45.472;-122.822;2022-08-19T14:52:07;19.50;99.90
6375;DHT22;35400;45.472;-122.822;2022-08-19T14:54:33;19.60;99.90
6375;DHT22;35400;45.472;-122.822;2022-08-19T14:57:00;19.60;99.90
6375;DHT22;35400;45.472;-122.822;2022-08-19T14:59:26;19.60;99.90
6375;DHT22;35400;45.472;-122.822;2022-08-19T15:01:53;19.70;99.90
6375;DHT22;35400;45.472;-122.822;2022-08-19T15:04:20;19.70;99.90
6375;DHT22;35400;45.472;-122.822;2022-08-19T15:06:46;19.70;99.90
6375;DHT22;35400;45.472;-122.822;2022-08-19T15:09:12;19.80;99.90
6375;DHT22;35400;45.472;-122.822;2022-08-19T15:11:39;19.80;99.90
6375;DHT22;35400;45.472;-122.822;2022-08-19T15:14:05;19.90;99.90
6375;DHT22;35400;45.472;-122.822;2022-08-19T15:16:32;19.90;99.90
6375;DHT22;35400;45.472;-122.822;2022-08-19T15:18:59;20.00;99.90
6375;DHT22;35400;45.472;-122.822;2022-08-19T15:21:27;20.10;99.90
6375;DHT22;35400;45.472;-122.822;2022-08-19T15:23:56;20.10;99.90
6375;DHT22;35400;45.472;-122.822;2022-08-19T15:26:22;20.20;99.90